createdAt,value
2023-04-25T00:04:31.164Z,1.38
2023-04-25T00:14:37.812Z,1.70
2023-04-25T00:24:45.895Z,1.60
2023-04-25T00:34:50.790Z,2.30
2023-04-25T00:44:54.453Z,2.00
2023-04-25T00:54:56.617Z,2.30
2023-04-25T01:04:58.758Z,2.40
2023-04-25T01:15:01.740Z,2.65
2023-04-25T01:25:04.045Z,2.50
2023-04-25T01:35:21.598Z,2.70
2023-04-25T01:45:23.543Z,2.80
2023-04-25T01:55:25.357Z,3.20
2023-04-25T02:05:27.363Z,2.30
2023-04-25T02:15:29.225Z,3.30
2023-04-25T02:25:33.526Z,2.97
2023-04-25T02:35:45.541Z,2.83
2023-04-25T02:45:48.309Z,2.50
2023-04-25T02:55:51.002Z,2.00
2023-04-25T03:05:59.238Z,1.70
2023-04-25T03:16:02.991Z,2.40
2023-04-25T03:26:05.310Z,2.83
2023-04-25T03:36:08.521Z,2.70
2023-04-25T03:56:13.006Z,2.60
2023-04-25T04:06:14.888Z,2.83
2023-04-25T04:16:16.674Z,3.22
2023-04-25T04:26:19.925Z,2.97
2023-04-25T04:46:25.958Z,3.10
2023-04-25T04:56:33.069Z,2.92
2023-04-25T05:06:34.730Z,3.58
2023-04-25T05:16:36.620Z,3.28
2023-04-25T05:26:44.142Z,3.33
2023-04-25T05:36:49.429Z,3.28
2023-04-25T05:46:51.288Z,3.70
2023-04-25T05:56:53.049Z,3.72
2023-04-25T06:06:54.674Z,3.90
2023-04-25T06:16:56.411Z,4.80
2023-04-25T06:26:59.079Z,5.10
2023-04-25T06:37:01.844Z,5.60
2023-04-25T06:47:03.544Z,5.33
2023-04-25T06:57:07.685Z,6.07
2023-04-25T07:07:09.544Z,4.63
2023-04-25T07:17:19.167Z,4.82
2023-04-25T07:27:20.854Z,5.57
2023-04-25T07:37:24.597Z,4.63
2023-04-25T07:47:31.771Z,4.55
2023-04-25T07:57:33.471Z,3.88
2023-04-25T08:07:36.092Z,3.50
2023-04-25T08:27:40.006Z,2.83
2023-04-25T08:37:41.643Z,2.30
2023-04-25T08:47:47.529Z,2.30
2023-04-25T08:57:50.704Z,2.45
2023-04-25T09:07:52.376Z,2.65
2023-04-25T09:17:58.866Z,2.70
2023-04-25T09:28:05.393Z,2.63
2023-04-25T09:38:11.573Z,1.77
2023-04-25T09:48:17.989Z,2.65
2023-04-25T09:58:20.033Z,1.63
2023-04-25T10:08:23.618Z,1.10
2023-04-25T10:18:28.301Z,1.00
2023-04-25T10:28:30.012Z,1.00
2023-04-25T10:38:32.781Z,1.33
2023-04-25T10:48:48.084Z,0.73
2023-04-25T10:58:52.099Z,1.63
2023-04-25T11:08:58.974Z,0.95
2023-04-25T11:19:01.237Z,0.75
2023-04-25T11:29:03.514Z,1.30
2023-04-25T11:39:06.265Z,0.47
2023-04-25T11:49:08.002Z,0.60
2023-04-25T11:59:15.976Z,0.80
2023-04-25T12:09:22.381Z,0.50
2023-04-25T12:19:24.587Z,0.40
2023-04-25T12:29:31.780Z,0.73
2023-04-25T12:39:37.280Z,0.40
2023-04-25T12:49:39.064Z,1.42
2023-04-25T12:59:53.457Z,0.68
2023-04-25T13:09:56.829Z,0.80
2023-04-25T13:20:01.843Z,1.40
2023-04-25T13:30:08.104Z,0.63
2023-04-25T13:40:12.937Z,0.60
2023-04-25T13:50:15.802Z,0.85
2023-04-25T14:00:18.798Z,1.50
2023-04-25T14:10:21.779Z,0.88
2023-04-25T14:20:25.819Z,0.73
2023-04-25T14:30:27.648Z,0.60
2023-04-25T14:40:31.456Z,1.20
2023-04-25T14:51:01.243Z,0.50
2023-04-25T15:01:10.645Z,0.57
2023-04-25T15:21:17.938Z,1.00
2023-04-25T15:31:34.510Z,1.10
2023-04-25T15:41:39.228Z,1.15
2023-04-25T15:51:45.489Z,1.60
2023-04-25T16:01:47.274Z,0.90
2023-04-25T16:11:49.358Z,1.70
2023-04-25T16:21:54.547Z,1.55
2023-04-25T16:31:58.528Z,2.00
2023-04-25T16:42:00.902Z,2.90
2023-04-25T16:52:03.997Z,3.03
2023-04-25T17:02:10.725Z,2.50
2023-04-25T17:12:14.295Z,3.38
2023-04-25T17:22:16.690Z,2.97
2023-04-25T17:32:26.847Z,2.60
2023-04-25T17:42:29.114Z,2.53
2023-04-25T17:52:31.687Z,2.47
2023-04-25T18:02:38.321Z,2.40
2023-04-25T18:12:43.196Z,2.13
2023-04-25T18:22:46.785Z,3.10
2023-04-25T18:32:50.214Z,4.55
2023-04-25T18:42:55.708Z,4.20
2023-04-25T18:52:57.782Z,3.55
2023-04-25T19:03:03.776Z,3.15
2023-04-25T19:13:07.125Z,2.80
2023-04-25T19:33:12.086Z,3.17
2023-04-25T19:43:14.719Z,3.43
2023-04-25T19:53:18.107Z,2.80
2023-04-25T20:13:23.662Z,3.33
2023-04-25T20:33:38.010Z,3.22
2023-04-25T20:43:45.116Z,5.32
2023-04-25T20:53:46.830Z,4.20
2023-04-25T21:03:55.389Z,3.80
2023-04-25T21:13:58.330Z,3.63
2023-04-25T21:24:01.165Z,3.13
2023-04-25T21:34:04.171Z,2.90
2023-04-25T21:44:12.952Z,3.77
2023-04-25T21:54:15.652Z,3.47
2023-04-25T22:04:17.834Z,3.33
2023-04-25T22:14:21.455Z,3.45
2023-04-25T22:24:26.851Z,3.67
2023-04-25T22:34:29.679Z,3.50
2023-04-25T22:44:34.506Z,3.83
2023-04-25T22:54:37.645Z,3.95
2023-04-25T23:04:40.335Z,4.22
2023-04-25T23:14:44.236Z,6.50
2023-04-25T23:24:46.971Z,4.60
2023-04-25T23:34:54.461Z,4.47
2023-04-25T23:44:56.116Z,4.60
2023-04-25T23:55:14.243Z,4.85
